sensor_id;sensor_type;location;lat;lon;timestamp;P1;durP1;ratioP1;P2;durP2;ratioP2
56435;SDS011;42335;44.872;20.658;2023-02-15T00:01:31;116.95;;;57.80;;
56435;SDS011;42335;44.872;20.658;2023-02-15T00:03:58;99.90;;;53.08;;
56435;SDS011;42335;44.872;20.658;2023-02-15T00:06:24;97.85;;;55.65;;
56435;SDS011;42335;44.872;20.658;2023-02-15T00:08:49;88.13;;;52.33;;
56435;SDS011;42335;44.872;20.658;2023-02-15T00:11:16;72.00;;;39.33;;
56435;SDS011;42335;44.872;20.658;2023-02-15T00:14:03;82.13;;;46.70;;
56435;SDS011;42335;44.872;20.658;2023-02-15T00:16:29;71.88;;;38.67;;
56435;SDS011;42335;44.872;20.658;2023-02-15T00:18:55;72.47;;;41.47;;
56435;SDS011;42335;44.872;20.658;2023-02-15T00:21:21;75.25;;;44.05;;
56435;SDS011;42335;44.872;20.658;2023-02-15T00:23:47;71.72;;;41.80;;
56435;SDS011;42335;44.872;20.658;2023-02-15T00:26:12;69.10;;;40.33;;
56435;SDS011;42335;44.872;20.658;2023-02-15T00:28:38;63.72;;;38.10;;
56435;SDS011;42335;44.872;20.658;2023-02-15T00:33:29;75.15;;;41.97;;
56435;SDS011;42335;44.872;20.658;2023-02-15T00:35:56;66.03;;;37.72;;
56435;SDS011;42335;44.872;20.658;2023-02-15T00:38:22;73.47;;;42.05;;
56435;SDS011;42335;44.872;20.658;2023-02-15T00:40:52;76.80;;;43.75;;
56435;SDS011;42335;44.872;20.658;2023-02-15T00:43:22;75.45;;;43.53;;
56435;SDS011;42335;44.872;20.658;2023-02-15T00:45:48;69.55;;;40.33;;
56435;SDS011;42335;44.872;20.658;2023-02-15T00:48:14;67.03;;;38.55;;
56435;SDS011;42335;44.872;20.658;2023-02-15T00:50:40;84.47;;;47.55;;
56435;SDS011;42335;44.872;20.658;2023-02-15T00:53:05;76.40;;;42.95;;
56435;SDS011;42335;44.872;20.658;2023-02-15T00:55:31;63.15;;;35.50;;
56435;SDS011;42335;44.872;20.658;2023-02-15T00:57:57;60.28;;;34.63;;
56435;SDS011;42335;44.872;20.658;2023-02-15T01:00:23;61.72;;;35.45;;
56435;SDS011;42335;44.872;20.658;2023-02-15T01:02:48;61.72;;;35.60;;
56435;SDS011;42335;44.872;20.658;2023-02-15T01:05:14;66.20;;;38.83;;
56435;SDS011;42335;44.872;20.658;2023-02-15T01:07:40;62.78;;;34.10;;
56435;SDS011;42335;44.872;20.658;2023-02-15T01:10:06;60.72;;;34.75;;
56435;SDS011;42335;44.872;20.658;2023-02-15T01:12:33;61.45;;;34.28;;
56435;SDS011;42335;44.872;20.658;2023-02-15T01:14:59;56.63;;;31.02;;
56435;SDS011;42335;44.872;20.658;2023-02-15T01:17:25;58.10;;;34.58;;
56435;SDS011;42335;44.872;20.658;2023-02-15T01:19:51;60.95;;;34.85;;
56435;SDS011;42335;44.872;20.658;2023-02-15T01:22:17;56.67;;;32.97;;
56435;SDS011;42335;44.872;20.658;2023-02-15T01:24:44;63.67;;;35.08;;
56435;SDS011;42335;44.872;20.658;2023-02-15T01:27:10;59.47;;;35.70;;
56435;SDS011;42335;44.872;20.658;2023-02-15T01:29:35;62.00;;;34.60;;
56435;SDS011;42335;44.872;20.658;2023-02-15T01:32:01;57.33;;;33.35;;
56435;SDS011;42335;44.872;20.658;2023-02-15T01:34:28;61.20;;;36.05;;
56435;SDS011;42335;44.872;20.658;2023-02-15T01:36:54;61.85;;;35.65;;
56435;SDS011;42335;44.872;20.658;2023-02-15T01:39:20;60.67;;;34.88;;
56435;SDS011;42335;44.872;20.658;2023-02-15T01:41:46;64.18;;;35.95;;
56435;SDS011;42335;44.872;20.658;2023-02-15T01:49:45;53.63;;;30.65;;
56435;SDS011;42335;44.872;20.658;2023-02-15T01:52:12;54.08;;;30.83;;
56435;SDS011;42335;44.872;20.658;2023-02-15T01:54:40;56.67;;;32.67;;
56435;SDS011;42335;44.872;20.658;2023-02-15T01:57:09;62.90;;;34.13;;
56435;SDS011;42335;44.872;20.658;2023-02-15T01:59:39;60.75;;;33.65;;
56435;SDS011;42335;44.872;20.658;2023-02-15T02:02:09;57.25;;;32.25;;
56435;SDS011;42335;44.872;20.658;2023-02-15T02:07:12;58.30;;;33.53;;
56435;SDS011;42335;44.872;20.658;2023-02-15T02:09:40;64.65;;;33.40;;
56435;SDS011;42335;44.872;20.658;2023-02-15T02:12:06;56.20;;;30.52;;
56435;SDS011;42335;44.872;20.658;2023-02-15T02:14:33;56.33;;;32.28;;
56435;SDS011;42335;44.872;20.658;2023-02-15T02:37:01;57.13;;;31.40;;
56435;SDS011;42335;44.872;20.658;2023-02-15T02:42:18;53.80;;;29.48;;
56435;SDS011;42335;44.872;20.658;2023-02-15T02:45:13;57.72;;;31.83;;
56435;SDS011;42335;44.872;20.658;2023-02-15T02:48:11;51.13;;;30.10;;
56435;SDS011;42335;44.872;20.658;2023-02-15T02:50:42;43.53;;;29.30;;
56435;SDS011;42335;44.872;20.658;2023-02-15T02:53:09;50.20;;;30.33;;
56435;SDS011;42335;44.872;20.658;2023-02-15T02:55:53;51.92;;;31.38;;
56435;SDS011;42335;44.872;20.658;2023-02-15T03:01:22;48.30;;;27.77;;
56435;SDS011;42335;44.872;20.658;2023-02-15T03:04:01;48.72;;;28.33;;
56435;SDS011;42335;44.872;20.658;2023-02-15T03:06:38;50.80;;;29.15;;
56435;SDS011;42335;44.872;20.658;2023-02-15T03:14:52;54.95;;;29.83;;
56435;SDS011;42335;44.872;20.658;2023-02-15T03:17:22;49.70;;;28.73;;
56435;SDS011;42335;44.872;20.658;2023-02-15T03:19:51;53.42;;;29.50;;
56435;SDS011;42335;44.872;20.658;2023-02-15T03:22:20;50.47;;;27.75;;
56435;SDS011;42335;44.872;20.658;2023-02-15T03:24:53;49.20;;;28.05;;
56435;SDS011;42335;44.872;20.658;2023-02-15T03:27:37;49.95;;;27.55;;
56435;SDS011;42335;44.872;20.658;2023-02-15T03:30:10;57.15;;;28.08;;
56435;SDS011;42335;44.872;20.658;2023-02-15T03:32:38;52.30;;;29.85;;
56435;SDS011;42335;44.872;20.658;2023-02-15T03:35:06;47.50;;;27.60;;
56435;SDS011;42335;44.872;20.658;2023-02-15T03:37:36;55.95;;;28.90;;
56435;SDS011;42335;44.872;20.658;2023-02-15T03:40:17;51.22;;;27.48;;
56435;SDS011;42335;44.872;20.658;2023-02-15T03:43:12;50.92;;;28.23;;
56435;SDS011;42335;44.872;20.658;2023-02-15T03:45:47;51.65;;;28.58;;
56435;SDS011;42335;44.872;20.658;2023-02-15T03:48:30;64.82;;;30.73;;
56435;SDS011;42335;44.872;20.658;2023-02-15T03:51:01;57.22;;;30.40;;
56435;SDS011;42335;44.872;20.658;2023-02-15T03:53:51;67.80;;;32.83;;
56435;SDS011;42335;44.872;20.658;2023-02-15T03:56:19;56.03;;;31.60;;
56435;SDS011;42335;44.872;20.658;2023-02-15T03:58:45;58.75;;;31.48;;
56435;SDS011;42335;44.872;20.658;2023-02-15T04:04:37;53.63;;;29.65;;
56435;SDS011;42335;44.872;20.658;2023-02-15T04:07:06;54.35;;;29.08;;
56435;SDS011;42335;44.872;20.658;2023-02-15T04:09:33;53.45;;;29.85;;
56435;SDS011;42335;44.872;20.658;2023-02-15T04:12:17;52.40;;;31.50;;
56435;SDS011;42335;44.872;20.658;2023-02-15T04:14:43;52.35;;;30.80;;
56435;SDS011;42335;44.872;20.658;2023-02-15T04:17:36;55.78;;;29.35;;
56435;SDS011;42335;44.872;20.658;2023-02-15T04:20:02;58.40;;;32.03;;
56435;SDS011;42335;44.872;20.658;2023-02-15T04:22:46;53.83;;;29.58;;
56435;SDS011;42335;44.872;20.658;2023-02-15T04:25:30;57.72;;;29.92;;
56435;SDS011;42335;44.872;20.658;2023-02-15T04:27:56;60.83;;;30.88;;
56435;SDS011;42335;44.872;20.658;2023-02-15T04:30:23;53.38;;;30.67;;
56435;SDS011;42335;44.872;20.658;2023-02-15T04:32:49;51.45;;;27.92;;
56435;SDS011;42335;44.872;20.658;2023-02-15T04:35:16;54.97;;;30.50;;
56435;SDS011;42335;44.872;20.658;2023-02-15T04:37:42;54.25;;;31.45;;
56435;SDS011;42335;44.872;20.658;2023-02-15T04:40:09;52.55;;;29.45;;
56435;SDS011;42335;44.872;20.658;2023-02-15T04:42:37;52.63;;;30.27;;
56435;SDS011;42335;44.872;20.658;2023-02-15T04:45:03;51.33;;;30.15;;
56435;SDS011;42335;44.872;20.658;2023-02-15T04:47:29;54.42;;;29.42;;
56435;SDS011;42335;44.872;20.658;2023-02-15T04:49:55;57.63;;;30.42;;
56435;SDS011;42335;44.872;20.658;2023-02-15T04:52:20;53.05;;;30.77;;
56435;SDS011;42335;44.872;20.658;2023-02-15T04:54:46;55.42;;;30.45;;
56435;SDS011;42335;44.872;20.658;2023-02-15T04:57:12;55.63;;;29.58;;
56435;SDS011;42335;44.872;20.658;2023-02-15T04:59:38;53.40;;;30.92;;
56435;SDS011;42335;44.872;20.658;2023-02-15T05:02:04;52.13;;;30.55;;
56435;SDS011;42335;44.872;20.658;2023-02-15T05:04:29;53.72;;;30.83;;
56435;SDS011;42335;44.872;20.658;2023-02-15T05:06:55;54.25;;;30.02;;
56435;SDS011;42335;44.872;20.658;2023-02-15T05:09:21;54.50;;;31.15;;
56435;SDS011;42335;44.872;20.658;2023-02-15T05:11:46;59.75;;;31.27;;
56435;SDS011;42335;44.872;20.658;2023-02-15T05:14:12;58.97;;;32.00;;
56435;SDS011;42335;44.872;20.658;2023-02-15T05:16:38;56.13;;;31.65;;
56435;SDS011;42335;44.872;20.658;2023-02-15T05:19:04;53.78;;;30.60;;
56435;SDS011;42335;44.872;20.658;2023-02-15T05:21:29;62.13;;;33.80;;
56435;SDS011;42335;44.872;20.658;2023-02-15T05:23:56;63.88;;;31.63;;
56435;SDS011;42335;44.872;20.658;2023-02-15T05:26:22;58.65;;;32.22;;
56435;SDS011;42335;44.872;20.658;2023-02-15T05:29:07;61.80;;;33.00;;
56435;SDS011;42335;44.872;20.658;2023-02-15T05:31:33;60.88;;;32.20;;
56435;SDS011;42335;44.872;20.658;2023-02-15T05:34:00;62.47;;;35.42;;
56435;SDS011;42335;44.872;20.658;2023-02-15T05:36:26;60.80;;;32.70;;
56435;SDS011;42335;44.872;20.658;2023-02-15T05:38:52;61.97;;;33.92;;
56435;SDS011;42335;44.872;20.658;2023-02-15T05:41:17;60.47;;;33.55;;
56435;SDS011;42335;44.872;20.658;2023-02-15T05:43:43;62.78;;;34.03;;
56435;SDS011;42335;44.872;20.658;2023-02-15T05:46:09;62.00;;;33.10;;
56435;SDS011;42335;44.872;20.658;2023-02-15T05:48:35;56.28;;;31.77;;
56435;SDS011;42335;44.872;20.658;2023-02-15T05:51:02;60.67;;;33.15;;
56435;SDS011;42335;44.872;20.658;2023-02-15T05:53:34;60.28;;;35.65;;
56435;SDS011;42335;44.872;20.658;2023-02-15T05:56:01;60.50;;;33.40;;
56435;SDS011;42335;44.872;20.658;2023-02-15T05:58:28;64.38;;;34.92;;
56435;SDS011;42335;44.872;20.658;2023-02-15T06:00:58;59.38;;;33.92;;
56435;SDS011;42335;44.872;20.658;2023-02-15T06:03:24;67.10;;;35.85;;
56435;SDS011;42335;44.872;20.658;2023-02-15T06:05:51;60.90;;;33.95;;
56435;SDS011;42335;44.872;20.658;2023-02-15T06:08:17;59.63;;;34.78;;
56435;SDS011;42335;44.872;20.658;2023-02-15T06:10:45;69.13;;;36.03;;
56435;SDS011;42335;44.872;20.658;2023-02-15T06:13:11;66.20;;;36.92;;
56435;SDS011;42335;44.872;20.658;2023-02-15T06:15:36;67.20;;;37.67;;
56435;SDS011;42335;44.872;20.658;2023-02-15T06:18:02;72.00;;;37.33;;
56435;SDS011;42335;44.872;20.658;2023-02-15T06:20:28;60.58;;;35.00;;
56435;SDS011;42335;44.872;20.658;2023-02-15T06:22:54;68.82;;;38.10;;
56435;SDS011;42335;44.872;20.658;2023-02-15T06:25:19;66.55;;;36.60;;
56435;SDS011;42335;44.872;20.658;2023-02-15T06:27:45;61.08;;;34.53;;
56435;SDS011;42335;44.872;20.658;2023-02-15T06:30:11;63.05;;;36.10;;
56435;SDS011;42335;44.872;20.658;2023-02-15T06:32:37;63.28;;;35.05;;
56435;SDS011;42335;44.872;20.658;2023-02-15T06:35:03;59.83;;;34.20;;
56435;SDS011;42335;44.872;20.658;2023-02-15T06:37:29;63.38;;;35.53;;
56435;SDS011;42335;44.872;20.658;2023-02-15T06:39:54;64.35;;;37.28;;
56435;SDS011;42335;44.872;20.658;2023-02-15T06:42:21;64.32;;;36.00;;
56435;SDS011;42335;44.872;20.658;2023-02-15T06:44:47;64.07;;;34.90;;
56435;SDS011;42335;44.872;20.658;2023-02-15T06:47:12;65.88;;;37.08;;
56435;SDS011;42335;44.872;20.658;2023-02-15T06:49:38;61.75;;;37.58;;
56435;SDS011;42335;44.872;20.658;2023-02-15T06:52:04;116.15;;;57.72;;
56435;SDS011;42335;44.872;20.658;2023-02-15T06:54:29;143.20;;;65.63;;
56435;SDS011;42335;44.872;20.658;2023-02-15T06:56:56;143.07;;;64.30;;
56435;SDS011;42335;44.872;20.658;2023-02-15T06:59:22;235.32;;;116.88;;
56435;SDS011;42335;44.872;20.658;2023-02-15T07:01:48;108.70;;;59.72;;
56435;SDS011;42335;44.872;20.658;2023-02-15T07:04:16;89.53;;;57.88;;
56435;SDS011;42335;44.872;20.658;2023-02-15T07:06:42;92.03;;;57.25;;
56435;SDS011;42335;44.872;20.658;2023-02-15T07:09:08;81.60;;;48.97;;
56435;SDS011;42335;44.872;20.658;2023-02-15T07:11:34;94.75;;;55.15;;
56435;SDS011;42335;44.872;20.658;2023-02-15T07:14:18;89.43;;;51.53;;
56435;SDS011;42335;44.872;20.658;2023-02-15T07:16:44;83.95;;;50.03;;
56435;SDS011;42335;44.872;20.658;2023-02-15T07:19:09;69.53;;;42.40;;
56435;SDS011;42335;44.872;20.658;2023-02-15T07:21:35;76.30;;;46.67;;
56435;SDS011;42335;44.872;20.658;2023-02-15T07:24:01;74.32;;;42.70;;
56435;SDS011;42335;44.872;20.658;2023-02-15T07:26:27;61.28;;;38.05;;
56435;SDS011;42335;44.872;20.658;2023-02-15T07:28:53;64.95;;;38.20;;
56435;SDS011;42335;44.872;20.658;2023-02-15T07:31:18;67.45;;;39.50;;
56435;SDS011;42335;44.872;20.658;2023-02-15T07:33:44;63.78;;;36.83;;
56435;SDS011;42335;44.872;20.658;2023-02-15T07:36:09;67.20;;;39.45;;
56435;SDS011;42335;44.872;20.658;2023-02-15T07:38:38;61.58;;;37.00;;
56435;SDS011;42335;44.872;20.658;2023-02-15T07:41:06;65.10;;;38.55;;
56435;SDS011;42335;44.872;20.658;2023-02-15T07:43:35;66.32;;;38.53;;
56435;SDS011;42335;44.872;20.658;2023-02-15T07:46:06;72.95;;;43.17;;
56435;SDS011;42335;44.872;20.658;2023-02-15T07:48:34;66.40;;;39.10;;
56435;SDS011;42335;44.872;20.658;2023-02-15T07:51:01;68.72;;;40.22;;
56435;SDS011;42335;44.872;20.658;2023-02-15T07:53:28;70.30;;;40.15;;
56435;SDS011;42335;44.872;20.658;2023-02-15T07:55:54;73.63;;;42.80;;
56435;SDS011;42335;44.872;20.658;2023-02-15T07:58:24;73.65;;;43.60;;
56435;SDS011;42335;44.872;20.658;2023-02-15T08:01:09;78.63;;;44.90;;
56435;SDS011;42335;44.872;20.658;2023-02-15T08:03:35;72.20;;;44.72;;
56435;SDS011;42335;44.872;20.658;2023-02-15T08:06:00;80.57;;;43.60;;
56435;SDS011;42335;44.872;20.658;2023-02-15T08:08:26;78.22;;;44.28;;
56435;SDS011;42335;44.872;20.658;2023-02-15T08:11:01;71.97;;;44.60;;
56435;SDS011;42335;44.872;20.658;2023-02-15T08:13:51;78.43;;;44.22;;
56435;SDS011;42335;44.872;20.658;2023-02-15T08:18:50;78.10;;;45.63;;
56435;SDS011;42335;44.872;20.658;2023-02-15T08:21:17;86.93;;;49.60;;
56435;SDS011;42335;44.872;20.658;2023-02-15T08:23:43;79.50;;;48.53;;
56435;SDS011;42335;44.872;20.658;2023-02-15T08:26:09;90.25;;;46.03;;
56435;SDS011;42335;44.872;20.658;2023-02-15T08:28:35;77.80;;;44.63;;
56435;SDS011;42335;44.872;20.658;2023-02-15T08:31:04;72.93;;;43.65;;
56435;SDS011;42335;44.872;20.658;2023-02-15T08:33:31;62.83;;;39.80;;
56435;SDS011;42335;44.872;20.658;2023-02-15T08:36:01;73.97;;;42.63;;
56435;SDS011;42335;44.872;20.658;2023-02-15T08:38:31;68.85;;;43.00;;
56435;SDS011;42335;44.872;20.658;2023-02-15T08:40:57;76.00;;;42.20;;
56435;SDS011;42335;44.872;20.658;2023-02-15T08:43:23;69.72;;;42.35;;
56435;SDS011;42335;44.872;20.658;2023-02-15T08:45:49;75.20;;;42.10;;
56435;SDS011;42335;44.872;20.658;2023-02-15T08:48:15;73.93;;;43.88;;
56435;SDS011;42335;44.872;20.658;2023-02-15T08:50:40;78.13;;;41.95;;
56435;SDS011;42335;44.872;20.658;2023-02-15T08:53:06;67.60;;;41.38;;
56435;SDS011;42335;44.872;20.658;2023-02-15T08:55:31;72.93;;;44.63;;
56435;SDS011;42335;44.872;20.658;2023-02-15T08:57:57;78.32;;;47.55;;
56435;SDS011;42335;44.872;20.658;2023-02-15T09:00:23;78.85;;;51.03;;
56435;SDS011;42335;44.872;20.658;2023-02-15T09:02:50;78.00;;;46.70;;
56435;SDS011;42335;44.872;20.658;2023-02-15T09:05:15;80.50;;;45.55;;
56435;SDS011;42335;44.872;20.658;2023-02-15T09:07:41;81.90;;;50.05;;
56435;SDS011;42335;44.872;20.658;2023-02-15T09:10:07;84.45;;;51.33;;
56435;SDS011;42335;44.872;20.658;2023-02-15T09:12:32;76.18;;;51.40;;
56435;SDS011;42335;44.872;20.658;2023-02-15T09:14:58;79.28;;;50.65;;
56435;SDS011;42335;44.872;20.658;2023-02-15T09:17:24;81.22;;;50.65;;
56435;SDS011;42335;44.872;20.658;2023-02-15T09:19:50;76.82;;;48.75;;
56435;SDS011;42335;44.872;20.658;2023-02-15T09:22:15;73.88;;;48.40;;
56435;SDS011;42335;44.872;20.658;2023-02-15T09:24:41;79.68;;;48.50;;
56435;SDS011;42335;44.872;20.658;2023-02-15T09:27:07;79.00;;;48.80;;
56435;SDS011;42335;44.872;20.658;2023-02-15T09:29:32;69.20;;;45.42;;
56435;SDS011;42335;44.872;20.658;2023-02-15T09:31:58;70.55;;;47.28;;
56435;SDS011;42335;44.872;20.658;2023-02-15T09:34:24;66.82;;;44.22;;
56435;SDS011;42335;44.872;20.658;2023-02-15T09:36:50;68.20;;;45.00;;
56435;SDS011;42335;44.872;20.658;2023-02-15T09:39:20;66.45;;;41.35;;
56435;SDS011;42335;44.872;20.658;2023-02-15T09:58:11;45.53;;;30.45;;
56435;SDS011;42335;44.872;20.658;2023-02-15T10:06:01;40.25;;;30.30;;
56435;SDS011;42335;44.872;20.658;2023-02-15T10:11:15;51.25;;;27.05;;
56435;SDS011;42335;44.872;20.658;2023-02-15T10:14:07;36.60;;;26.30;;
56435;SDS011;42335;44.872;20.658;2023-02-15T10:16:56;28.63;;;25.50;;
56435;SDS011;42335;44.872;20.658;2023-02-15T10:27:44;22.70;;;20.20;;
56435;SDS011;42335;44.872;20.658;2023-02-15T10:30:15;21.85;;;19.65;;
56435;SDS011;42335;44.872;20.658;2023-02-15T10:32:57;25.48;;;20.15;;
56435;SDS011;42335;44.872;20.658;2023-02-15T10:51:43;24.67;;;17.33;;
56435;SDS011;42335;44.872;20.658;2023-02-15T10:54:42;21.48;;;17.20;;
56435;SDS011;42335;44.872;20.658;2023-02-15T10:58:07;19.33;;;16.35;;
56435;SDS011;42335;44.872;20.658;2023-02-15T11:00:27;20.90;;;16.27;;
56435;SDS011;42335;44.872;20.658;2023-02-15T11:06:03;18.63;;;16.73;;
56435;SDS011;42335;44.872;20.658;2023-02-15T11:08:35;18.80;;;16.73;;
56435;SDS011;42335;44.872;20.658;2023-02-15T11:11:06;21.60;;;16.60;;
56435;SDS011;42335;44.872;20.658;2023-02-15T11:13:56;21.10;;;17.50;;
56435;SDS011;42335;44.872;20.658;2023-02-15T11:16:32;17.83;;;15.93;;
56435;SDS011;42335;44.872;20.658;2023-02-15T11:19:03;18.40;;;16.50;;
56435;SDS011;42335;44.872;20.658;2023-02-15T11:21:39;17.33;;;15.45;;
56435;SDS011;42335;44.872;20.658;2023-02-15T11:24:13;17.70;;;15.80;;
56435;SDS011;42335;44.872;20.658;2023-02-15T11:26:47;16.55;;;14.98;;
56435;SDS011;42335;44.872;20.658;2023-02-15T11:29:28;19.77;;;16.05;;
56435;SDS011;42335;44.872;20.658;2023-02-15T11:32:14;17.35;;;15.55;;
56435;SDS011;42335;44.872;20.658;2023-02-15T11:35:04;19.83;;;15.02;;
56435;SDS011;42335;44.872;20.658;2023-02-15T11:37:40;18.08;;;14.95;;
56435;SDS011;42335;44.872;20.658;2023-02-15T11:42:49;18.00;;;16.17;;
56435;SDS011;42335;44.872;20.658;2023-02-15T11:47:48;19.05;;;17.00;;
56435;SDS011;42335;44.872;20.658;2023-02-15T11:50:15;21.17;;;17.23;;
56435;SDS011;42335;44.872;20.658;2023-02-15T11:52:47;19.48;;;17.48;;
56435;SDS011;42335;44.872;20.658;2023-02-15T11:55:20;19.13;;;17.15;;
56435;SDS011;42335;44.872;20.658;2023-02-15T11:57:53;17.27;;;14.45;;
56435;SDS011;42335;44.872;20.658;2023-02-15T12:00:40;16.42;;;14.18;;
56435;SDS011;42335;44.872;20.658;2023-02-15T12:03:13;18.25;;;15.35;;
56435;SDS011;42335;44.872;20.658;2023-02-15T12:05:49;17.48;;;14.77;;
56435;SDS011;42335;44.872;20.658;2023-02-15T12:08:21;23.40;;;15.20;;
56435;SDS011;42335;44.872;20.658;2023-02-15T12:13:28;18.38;;;15.98;;
56435;SDS011;42335;44.872;20.658;2023-02-15T12:15:55;17.83;;;15.98;;
56435;SDS011;42335;44.872;20.658;2023-02-15T12:18:31;23.50;;;17.20;;
56435;SDS011;42335;44.872;20.658;2023-02-15T12:21:03;21.27;;;17.83;;
56435;SDS011;42335;44.872;20.658;2023-02-15T12:23:39;20.33;;;18.15;;
56435;SDS011;42335;44.872;20.658;2023-02-15T12:26:13;21.33;;;17.92;;
56435;SDS011;42335;44.872;20.658;2023-02-15T12:28:43;23.13;;;20.63;;
56435;SDS011;42335;44.872;20.658;2023-02-15T12:31:25;25.23;;;21.55;;
56435;SDS011;42335;44.872;20.658;2023-02-15T12:33:56;38.70;;;28.92;;
56435;SDS011;42335;44.872;20.658;2023-02-15T12:36:25;33.05;;;23.15;;
56435;SDS011;42335;44.872;20.658;2023-02-15T12:42:13;28.00;;;20.50;;
56435;SDS011;42335;44.872;20.658;2023-02-15T12:44:39;26.05;;;20.92;;
56435;SDS011;42335;44.872;20.658;2023-02-15T12:47:23;24.60;;;18.10;;
56435;SDS011;42335;44.872;20.658;2023-02-15T12:53:06;23.30;;;18.30;;
56435;SDS011;42335;44.872;20.658;2023-02-15T12:58:52;26.05;;;18.67;;
56435;SDS011;42335;44.872;20.658;2023-02-15T13:01:31;26.13;;;19.08;;
56435;SDS011;42335;44.872;20.658;2023-02-15T13:03:59;29.02;;;21.98;;
56435;SDS011;42335;44.872;20.658;2023-02-15T13:06:25;36.47;;;21.60;;
56435;SDS011;42335;44.872;20.658;2023-02-15T13:09:05;27.15;;;20.45;;
56435;SDS011;42335;44.872;20.658;2023-02-15T13:11:43;28.65;;;21.88;;
56435;SDS011;42335;44.872;20.658;2023-02-15T13:14:16;29.60;;;20.67;;
56435;SDS011;42335;44.872;20.658;2023-02-15T13:16:45;35.70;;;26.50;;
56435;SDS011;42335;44.872;20.658;2023-02-15T13:19:20;40.50;;;30.00;;
56435;SDS011;42335;44.872;20.658;2023-02-15T13:21:53;29.05;;;21.50;;
56435;SDS011;42335;44.872;20.658;2023-02-15T13:26:55;32.05;;;20.35;;
56435;SDS011;42335;44.872;20.658;2023-02-15T13:29:28;27.00;;;20.83;;
56435;SDS011;42335;44.872;20.658;2023-02-15T13:31:57;29.77;;;21.67;;
56435;SDS011;42335;44.872;20.658;2023-02-15T13:39:53;32.70;;;22.75;;
56435;SDS011;42335;44.872;20.658;2023-02-15T13:42:39;31.90;;;22.27;;
56435;SDS011;42335;44.872;20.658;2023-02-15T13:54:01;28.08;;;18.23;;
56435;SDS011;42335;44.872;20.658;2023-02-15T13:59:38;26.60;;;18.45;;
56435;SDS011;42335;44.872;20.658;2023-02-15T14:10:19;24.75;;;19.02;;
56435;SDS011;42335;44.872;20.658;2023-02-15T14:16:00;25.75;;;19.55;;
56435;SDS011;42335;44.872;20.658;2023-02-15T14:18:42;27.67;;;20.50;;
56435;SDS011;42335;44.872;20.658;2023-02-15T14:30:03;36.50;;;23.17;;
56435;SDS011;42335;44.872;20.658;2023-02-15T14:32:39;33.67;;;22.77;;
56435;SDS011;42335;44.872;20.658;2023-02-15T14:35:13;38.78;;;24.10;;
56435;SDS011;42335;44.872;20.658;2023-02-15T14:37:48;33.20;;;22.65;;
56435;SDS011;42335;44.872;20.658;2023-02-15T14:43:41;32.70;;;21.45;;
56435;SDS011;42335;44.872;20.658;2023-02-15T14:49:05;30.30;;;20.45;;
56435;SDS011;42335;44.872;20.658;2023-02-15T14:54:11;28.60;;;18.27;;
56435;SDS011;42335;44.872;20.658;2023-02-15T15:02:04;33.85;;;21.45;;
56435;SDS011;42335;44.872;20.658;2023-02-15T15:04:41;27.17;;;19.60;;
56435;SDS011;42335;44.872;20.658;2023-02-15T15:07:20;32.17;;;22.02;;
56435;SDS011;42335;44.872;20.658;2023-02-15T15:12:41;32.35;;;22.83;;
56435;SDS011;42335;44.872;20.658;2023-02-15T15:15:07;35.58;;;21.58;;
56435;SDS011;42335;44.872;20.658;2023-02-15T15:22:38;45.90;;;26.05;;
56435;SDS011;42335;44.872;20.658;2023-02-15T15:27:56;51.33;;;32.88;;
56435;SDS011;42335;44.872;20.658;2023-02-15T15:32:54;43.40;;;29.98;;
56435;SDS011;42335;44.872;20.658;2023-02-15T15:49:29;56.70;;;32.65;;
56435;SDS011;42335;44.872;20.658;2023-02-15T15:51:59;58.10;;;32.80;;
56435;SDS011;42335;44.872;20.658;2023-02-15T15:54:28;52.05;;;33.20;;
56435;SDS011;42335;44.872;20.658;2023-02-15T15:56:55;64.50;;;38.55;;
56435;SDS011;42335;44.872;20.658;2023-02-15T15:59:30;80.45;;;44.65;;
56435;SDS011;42335;44.872;20.658;2023-02-15T16:02:05;114.70;;;59.35;;
56435;SDS011;42335;44.872;20.658;2023-02-15T16:04:36;107.82;;;55.50;;
56435;SDS011;42335;44.872;20.658;2023-02-15T16:10:03;116.95;;;60.05;;
56435;SDS011;42335;44.872;20.658;2023-02-15T16:12:45;119.95;;;60.85;;
56435;SDS011;42335;44.872;20.658;2023-02-15T16:15:19;103.40;;;55.35;;
56435;SDS011;42335;44.872;20.658;2023-02-15T16:17:54;96.40;;;50.60;;
56435;SDS011;42335;44.872;20.658;2023-02-15T16:25:58;85.03;;;49.40;;
56435;SDS011;42335;44.872;20.658;2023-02-15T16:28:32;85.82;;;50.58;;
56435;SDS011;42335;44.872;20.658;2023-02-15T16:31:04;98.47;;;56.55;;
56435;SDS011;42335;44.872;20.658;2023-02-15T16:33:37;102.85;;;59.88;;
56435;SDS011;42335;44.872;20.658;2023-02-15T16:36:04;103.38;;;60.95;;
56435;SDS011;42335;44.872;20.658;2023-02-15T16:41:07;111.70;;;61.92;;
56435;SDS011;42335;44.872;20.658;2023-02-15T16:43:48;114.60;;;67.00;;
56435;SDS011;42335;44.872;20.658;2023-02-15T16:46:18;129.73;;;72.15;;
56435;SDS011;42335;44.872;20.658;2023-02-15T16:49:15;151.45;;;78.93;;
56435;SDS011;42335;44.872;20.658;2023-02-15T16:51:44;137.85;;;78.57;;
56435;SDS011;42335;44.872;20.658;2023-02-15T16:54:16;154.30;;;83.55;;
56435;SDS011;42335;44.872;20.658;2023-02-15T16:59:32;166.40;;;86.65;;
56435;SDS011;42335;44.872;20.658;2023-02-15T17:02:05;181.18;;;91.97;;
56435;SDS011;42335;44.872;20.658;2023-02-15T17:04:38;179.90;;;89.13;;
56435;SDS011;42335;44.872;20.658;2023-02-15T17:07:19;187.35;;;91.10;;
56435;SDS011;42335;44.872;20.658;2023-02-15T17:09:49;210.30;;;106.20;;
56435;SDS011;42335;44.872;20.658;2023-02-15T17:15:35;248.35;;;118.45;;
56435;SDS011;42335;44.872;20.658;2023-02-15T17:18:08;226.50;;;115.82;;
56435;SDS011;42335;44.872;20.658;2023-02-15T17:20:44;238.77;;;121.30;;
56435;SDS011;42335;44.872;20.658;2023-02-15T17:23:45;257.45;;;130.13;;
56435;SDS011;42335;44.872;20.658;2023-02-15T17:26:14;240.13;;;118.78;;
56435;SDS011;42335;44.872;20.658;2023-02-15T17:28:50;246.38;;;117.95;;
56435;SDS011;42335;44.872;20.658;2023-02-15T17:31:31;248.52;;;116.40;;
56435;SDS011;42335;44.872;20.658;2023-02-15T17:33:58;255.98;;;117.80;;
56435;SDS011;42335;44.872;20.658;2023-02-15T17:36:28;278.48;;;119.75;;
56435;SDS011;42335;44.872;20.658;2023-02-15T17:41:27;235.05;;;115.45;;
56435;SDS011;42335;44.872;20.658;2023-02-15T17:43:59;258.77;;;118.30;;
56435;SDS011;42335;44.872;20.658;2023-02-15T17:46:25;244.13;;;120.03;;
56435;SDS011;42335;44.872;20.658;2023-02-15T17:48:57;256.17;;;124.10;;
56435;SDS011;42335;44.872;20.658;2023-02-15T17:51:23;229.88;;;122.22;;
56435;SDS011;42335;44.872;20.658;2023-02-15T17:53:49;234.45;;;124.15;;
56435;SDS011;42335;44.872;20.658;2023-02-15T17:56:35;259.35;;;129.20;;
56435;SDS011;42335;44.872;20.658;2023-02-15T17:59:01;247.50;;;124.32;;
56435;SDS011;42335;44.872;20.658;2023-02-15T18:01:31;265.10;;;125.43;;
56435;SDS011;42335;44.872;20.658;2023-02-15T18:04:19;238.30;;;120.50;;